createdAt,value
2022-11-15T00:00:51.441Z,99568.47
2022-11-15T00:03:58.177Z,99568.31
2022-11-15T00:07:04.964Z,99567.59
2022-11-15T00:10:11.547Z,99567.28
2022-11-15T00:13:18.058Z,99566.16
2022-11-15T00:16:26.472Z,99560.50
2022-11-15T00:19:33.327Z,99560.66
2022-11-15T00:22:40.039Z,99554.75
2022-11-15T00:25:46.538Z,99561.03
2022-11-15T00:28:54.481Z,99543.22
2022-11-15T00:32:02.339Z,99554.75
2022-11-15T00:35:09.568Z,99548.13
2022-11-15T00:38:16.018Z,99540.16
2022-11-15T00:41:22.670Z,99540.28
2022-11-15T00:44:29.153Z,99544.41
2022-11-15T00:47:36.867Z,99549.00
2022-11-15T00:50:43.270Z,99549.66
2022-11-15T00:53:50.060Z,99543.97
2022-11-15T00:56:56.438Z,99540.16
2022-11-15T01:00:02.753Z,99545.34
2022-11-15T01:03:10.731Z,99541.22
2022-11-15T01:06:17.149Z,99539.69
2022-11-15T01:09:24.122Z,99537.63
2022-11-15T01:12:30.833Z,99524.63
2022-11-15T01:15:41.151Z,99509.91
2022-11-15T01:18:49.113Z,99517.16
2022-11-15T01:21:55.481Z,99516.69
2022-11-15T01:25:02.143Z,99524.56
2022-11-15T01:28:08.616Z,99515.06
2022-11-15T01:31:17.688Z,99509.47
2022-11-15T01:34:25.639Z,99503.13
2022-11-15T01:37:32.073Z,99512.56
2022-11-15T01:40:38.599Z,99499.94
2022-11-15T01:43:45.263Z,99503.50
2022-11-15T01:46:51.855Z,99498.31
2022-11-15T01:50:04.133Z,99514.47
2022-11-15T01:53:11.795Z,99513.63
2022-11-15T01:56:26.921Z,99516.50
2022-11-15T01:59:34.016Z,99505.50
2022-11-15T02:02:41.044Z,99505.50
2022-11-15T02:05:49.214Z,99499.22
2022-11-15T02:08:58.295Z,99488.94
2022-11-15T02:12:05.781Z,99491.38
2022-11-15T02:15:13.289Z,99484.41
2022-11-15T02:18:28.339Z,99484.84
2022-11-15T02:21:43.139Z,99477.81
2022-11-15T02:25:15.758Z,99477.47
2022-11-15T02:28:47.411Z,99462.53
2022-11-15T02:32:04.101Z,99463.31
2022-11-15T02:35:17.735Z,99419.69
2022-11-15T02:38:32.914Z,99456.63
2022-11-15T02:41:48.041Z,99440.50
2022-11-15T02:44:57.404Z,99444.41
2022-11-15T02:48:06.988Z,99434.16
2022-11-15T02:51:15.466Z,99435.75
2022-11-15T02:54:24.191Z,99423.94
2022-11-15T02:57:46.147Z,99422.69
2022-11-15T03:01:01.778Z,99415.25
2022-11-15T03:04:24.168Z,99422.69
2022-11-15T03:07:37.336Z,99425.47
2022-11-15T03:10:50.968Z,99414.06
2022-11-15T03:14:00.894Z,99420.38
2022-11-15T03:17:17.586Z,99406.63
2022-11-15T03:20:28.488Z,99414.06
2022-11-15T03:23:36.880Z,99410.53
2022-11-15T03:26:47.605Z,99425.84
2022-11-15T03:29:59.779Z,99423.19
2022-11-15T03:33:07.090Z,99420.06
2022-11-15T03:36:16.280Z,99412.56
2022-11-15T03:39:23.828Z,99407.50
2022-11-15T03:42:34.153Z,99409.88
2022-11-15T03:45:47.076Z,99411.44
2022-11-15T03:48:58.894Z,99409.84
2022-11-15T03:52:07.810Z,99418.50
2022-11-15T03:55:19.923Z,99419.69
2022-11-15T03:58:26.460Z,99415.34
2022-11-15T04:01:32.767Z,99405.53
2022-11-15T04:04:39.142Z,99404.72
2022-11-15T04:07:47.157Z,99414.16
2022-11-15T04:10:53.768Z,99413.38
2022-11-15T04:14:00.497Z,99418.47
2022-11-15T04:17:07.097Z,99418.88
2022-11-15T04:20:33.550Z,99416.53
2022-11-15T04:24:02.299Z,99422.81
2022-11-15T04:27:09.056Z,99417.69
2022-11-15T04:30:15.357Z,99421.63
2022-11-15T04:33:21.635Z,99412.16
2022-11-15T04:36:45.688Z,99408.63
2022-11-15T04:39:53.641Z,99408.97
2022-11-15T04:43:03.803Z,99403.47
2022-11-15T04:46:11.054Z,99405.84
2022-11-15T04:49:17.413Z,99403.47
2022-11-15T04:52:23.781Z,99399.53
2022-11-15T04:55:31.469Z,99401.50
2022-11-15T04:58:37.773Z,99397.63
2022-11-15T05:01:45.262Z,99390.13
2022-11-15T05:04:50.753Z,99381.44
2022-11-15T05:07:57.274Z,99381.03
2022-11-15T05:11:05.048Z,99383.03
2022-11-15T05:14:11.407Z,99366.50
2022-11-15T05:17:17.826Z,99368.03
2022-11-15T05:20:24.433Z,99360.25
2022-11-15T05:23:31.422Z,99363.78
2022-11-15T05:26:39.759Z,99361.81
2022-11-15T05:29:46.233Z,99362.19
2022-11-15T05:32:52.868Z,99353.94
2022-11-15T05:36:04.746Z,99357.50
2022-11-15T05:39:11.251Z,99360.63
2022-11-15T05:42:19.728Z,99363.44
2022-11-15T05:45:27.112Z,99364.63
2022-11-15T05:48:36.126Z,99361.50
2022-11-15T05:51:45.350Z,99349.31
2022-11-15T05:54:52.889Z,99353.22
2022-11-15T05:58:01.579Z,99358.34
2022-11-15T06:01:07.925Z,99349.69
2022-11-15T06:04:14.214Z,99368.53
2022-11-15T06:07:20.542Z,99363.84
2022-11-15T06:10:26.888Z,99361.09
2022-11-15T06:13:35.484Z,99364.19
2022-11-15T06:16:41.725Z,99365.38
2022-11-15T06:19:48.323Z,99373.69
2022-11-15T06:22:58.682Z,99368.50
2022-11-15T06:26:05.777Z,99378.78
2022-11-15T06:29:13.379Z,99363.00
2022-11-15T06:32:19.712Z,99374.41
2022-11-15T06:35:26.148Z,99368.91
2022-11-15T06:38:32.548Z,99368.13
2022-11-15T06:41:39.017Z,99375.22
2022-11-15T06:44:46.773Z,99382.31
2022-11-15T06:47:53.307Z,99381.09
2022-11-15T06:51:02.517Z,99377.94
2022-11-15T06:54:08.932Z,99381.50
2022-11-15T06:57:15.698Z,99382.66
2022-11-15T07:00:24.633Z,99374.06
2022-11-15T07:03:31.515Z,99374.47
2022-11-15T07:06:17.948Z,99366.59
2022-11-15T07:09:04.612Z,99299.03
2022-11-15T07:11:50.970Z,99372.88
2022-11-15T07:14:37.088Z,99367.75
2022-11-15T07:17:24.743Z,99361.81
2022-11-15T07:20:12.382Z,99340.59
2022-11-15T07:23:02.797Z,99365.69
2022-11-15T07:25:49.401Z,99362.88
2022-11-15T07:28:36.482Z,99366.41
2022-11-15T07:31:23.466Z,99366.78
2022-11-15T07:34:11.521Z,99368.03
2022-11-15T07:36:57.613Z,99381.34
2022-11-15T07:39:43.740Z,99346.69
2022-11-15T07:42:50.686Z,99376.44
2022-11-15T07:45:42.787Z,99365.88
2022-11-15T07:48:42.172Z,99370.84
2022-11-15T07:51:31.184Z,99366.13
2022-11-15T07:54:17.354Z,99382.66
2022-11-15T07:57:07.292Z,99381.78
2022-11-15T07:59:53.984Z,99378.91
2022-11-15T08:02:40.426Z,99382.44
2022-11-15T08:05:27.098Z,99381.25
2022-11-15T08:08:14.696Z,99380.75
2022-11-15T08:11:01.236Z,99380.66
2022-11-15T08:13:47.595Z,99380.88
2022-11-15T08:16:33.938Z,99374.03
2022-11-15T08:19:20.901Z,99374.34
2022-11-15T08:22:07.286Z,99381.00
2022-11-15T08:24:54.759Z,99372.94
2022-11-15T08:27:41.102Z,99364.44
2022-11-15T08:30:28.040Z,99375.31
2022-11-15T08:33:15.716Z,99369.88
2022-11-15T08:36:02.801Z,99344.59
2022-11-15T08:38:49.084Z,99359.06
2022-11-15T08:41:39.097Z,99357.63
2022-11-15T08:44:25.941Z,99350.44
2022-11-15T08:47:12.998Z,99361.19
2022-11-15T08:49:59.229Z,99349.34
2022-11-15T08:52:45.772Z,99354.72
2022-11-15T08:55:32.110Z,99356.22
2022-11-15T08:58:19.903Z,99353.03
2022-11-15T09:01:06.932Z,99348.59
2022-11-15T09:03:53.670Z,99355.47
2022-11-15T09:06:43.045Z,99362.22
2022-11-15T09:09:29.534Z,99349.59
2022-11-15T09:12:15.809Z,99353.03
2022-11-15T09:15:03.618Z,99351.94
2022-11-15T09:17:49.965Z,99346.97
2022-11-15T09:20:36.431Z,99345.00
2022-11-15T09:23:22.843Z,99346.75
2022-11-15T09:26:09.718Z,99349.03
2022-11-15T09:28:56.132Z,99344.91
2022-11-15T09:31:43.696Z,99345.34
2022-11-15T09:34:30.013Z,99349.13
2022-11-15T09:37:16.233Z,99351.03
2022-11-15T09:40:02.689Z,99354.56
2022-11-15T09:43:06.840Z,99354.75
2022-11-15T09:46:03.191Z,99348.31
2022-11-15T09:48:58.005Z,99354.84
2022-11-15T09:51:51.004Z,99347.81
2022-11-15T09:57:19.733Z,99339.53
2022-11-15T10:00:30.955Z,99341.09
2022-11-15T10:03:06.454Z,99330.84
2022-11-15T10:05:40.676Z,99337.75
2022-11-15T10:08:23.182Z,99341.03
2022-11-15T10:11:09.729Z,99345.25
2022-11-15T10:13:44.849Z,99339.00
2022-11-15T10:16:27.036Z,99339.00
2022-11-15T10:19:03.268Z,99328.31
2022-11-15T10:21:46.088Z,99321.56
2022-11-15T10:24:14.880Z,99314.78
2022-11-15T10:26:48.666Z,99315.50
2022-11-15T10:29:26.468Z,99314.00
2022-11-15T10:31:54.622Z,99319.31
2022-11-15T10:34:23.931Z,99304.22
2022-11-15T10:36:58.752Z,99313.63
2022-11-15T10:39:28.094Z,99265.75
2022-11-15T10:41:55.923Z,99304.44
2022-11-15T10:44:26.985Z,99305.34
2022-11-15T10:47:23.706Z,99289.44
2022-11-15T10:50:00.276Z,99292.22
2022-11-15T10:52:31.645Z,99288.00
2022-11-15T10:55:05.612Z,99283.53
2022-11-15T10:57:36.332Z,99283.19
2022-11-15T11:00:07.442Z,99282.47
2022-11-15T11:02:38.606Z,99280.06
2022-11-15T11:05:08.338Z,99272.03
2022-11-15T11:07:37.823Z,99257.94
2022-11-15T11:10:44.528Z,99260.22
2022-11-15T11:13:16.501Z,99252.84
2022-11-15T11:15:47.821Z,99253.22
2022-11-15T11:18:21.541Z,99247.97
2022-11-15T11:20:54.637Z,99244.53
2022-11-15T11:23:47.778Z,99238.31
2022-11-15T11:26:33.390Z,99236.88
2022-11-15T11:29:10.021Z,99246.41
2022-11-15T11:31:44.194Z,99237.22
2022-11-15T11:34:24.123Z,99224.34
2022-11-15T11:37:02.603Z,99226.72
2022-11-15T11:39:46.388Z,99225.91
2022-11-15T11:42:25.910Z,99218.22
2022-11-15T11:45:07.641Z,99211.53
2022-11-15T11:47:40.859Z,99213.09
2022-11-15T11:50:15.687Z,99208.84
2022-11-15T11:52:51.136Z,99198.84
2022-11-15T11:55:25.368Z,99188.53
2022-11-15T11:57:59.068Z,99174.28
2022-11-15T12:00:29.363Z,99185.63
2022-11-15T12:03:07.409Z,99176.25
2022-11-15T12:05:41.251Z,99173.66
2022-11-15T12:08:25.601Z,99170.97
2022-11-15T12:11:01.554Z,99166.22
2022-11-15T12:13:34.857Z,99145.97
2022-11-15T12:16:10.804Z,99171.41
2022-11-15T12:18:39.457Z,99113.53
2022-11-15T12:21:10.336Z,99155.28
2022-11-15T12:23:44.410Z,99148.78
2022-11-15T12:26:19.863Z,99148.69
2022-11-15T12:29:06.450Z,99133.91
2022-11-15T12:31:40.395Z,99128.56
2022-11-15T12:34:30.816Z,99125.44
2022-11-15T12:36:58.424Z,99124.22
2022-11-15T12:39:59.635Z,99126.72
2022-11-15T12:42:58.508Z,99125.84
2022-11-15T12:45:29.471Z,99108.63
2022-11-15T12:48:28.695Z,99116.09
2022-11-15T12:50:58.997Z,99109.50
2022-11-15T12:53:28.695Z,99094.59
2022-11-15T12:56:23.863Z,99105.34
2022-11-15T12:58:56.531Z,99102.72
2022-11-15T13:02:01.001Z,99087.13
2022-11-15T13:04:31.312Z,99093.19
2022-11-15T13:07:01.674Z,99094.22
2022-11-15T13:09:56.176Z,99090.41
2022-11-15T13:12:56.185Z,99095.44
2022-11-15T13:15:43.068Z,99067.34
2022-11-15T13:18:35.395Z,99096.47
2022-11-15T13:21:27.077Z,99082.41
2022-11-15T13:23:58.087Z,99081.22
2022-11-15T13:26:26.439Z,99085.03
2022-11-15T13:28:56.289Z,99081.50
2022-11-15T13:31:29.846Z,99071.19
2022-11-15T13:34:01.385Z,99069.19
2022-11-15T13:36:31.317Z,99070.91
2022-11-15T13:39:01.562Z,99062.16
2022-11-15T13:41:31.335Z,99060.19
2022-11-15T13:44:00.656Z,99048.41
2022-11-15T13:46:30.935Z,99049.69
2022-11-15T13:49:00.442Z,99044.75
2022-11-15T13:51:35.804Z,99040.56
2022-11-15T13:54:14.622Z,99036.72
2022-11-15T13:56:46.031Z,99031.72
2022-11-15T13:59:20.420Z,99025.28
2022-11-15T14:01:50.196Z,99020.44
2022-11-15T14:04:22.112Z,99016.56
2022-11-15T14:06:52.702Z,99006.59
2022-11-15T14:09:38.765Z,99007.75
2022-11-15T14:12:28.849Z,99006.19
2022-11-15T14:14:56.800Z,98997.78
2022-11-15T14:17:38.627Z,98994.81
2022-11-15T14:20:27.320Z,98994.59
2022-11-15T14:22:56.753Z,98990.66
2022-11-15T14:25:25.186Z,98991.00
2022-11-15T14:28:14.598Z,98976.91
2022-11-15T14:30:44.072Z,98966.00
2022-11-15T14:33:25.797Z,98947.03
2022-11-15T14:35:54.317Z,98955.06
2022-11-15T14:38:22.014Z,98954.88
2022-11-15T14:40:49.712Z,98948.56
2022-11-15T14:43:17.605Z,98944.41
2022-11-15T14:45:45.379Z,98944.06
2022-11-15T14:48:12.982Z,98945.47
2022-11-15T14:50:42.339Z,98932.41
2022-11-15T14:53:14.691Z,98936.19
2022-11-15T14:55:42.577Z,98931.09
2022-11-15T14:58:10.478Z,98891.47
2022-11-15T15:00:39.807Z,98921.25
2022-11-15T15:03:08.374Z,98921.31
2022-11-15T15:05:38.280Z,98915.06
2022-11-15T15:08:08.029Z,98915.00
2022-11-15T15:10:41.054Z,98896.84
2022-11-15T15:13:18.594Z,98902.09
2022-11-15T15:15:46.457Z,98907.69
2022-11-15T15:18:14.217Z,98876.75
2022-11-15T15:20:43.947Z,98891.78
2022-11-15T15:23:17.265Z,98883.88
2022-11-15T15:25:46.391Z,98881.69
2022-11-15T15:28:14.783Z,98844.88
2022-11-15T15:30:42.933Z,98858.69
2022-11-15T15:33:10.608Z,98851.16
2022-11-15T15:35:38.330Z,98760.47
2022-11-15T15:38:06.110Z,98818.22
2022-11-15T15:40:35.418Z,98848.53
2022-11-15T15:43:03.081Z,98851.09
2022-11-15T15:45:31.103Z,98850.41
2022-11-15T15:47:58.824Z,98856.34
2022-11-15T15:50:28.548Z,98859.53
2022-11-15T15:52:58.597Z,98855.00
2022-11-15T15:55:27.140Z,98855.63
2022-11-15T15:57:56.782Z,98855.56
2022-11-15T16:00:26.655Z,98851.66
2022-11-15T16:02:54.877Z,98852.16
2022-11-15T16:05:23.233Z,98842.03
2022-11-15T16:07:50.945Z,98830.53
2022-11-15T16:10:21.769Z,98841.94
2022-11-15T16:12:49.787Z,98835.94
2022-11-15T16:15:19.806Z,98842.94
2022-11-15T16:17:50.949Z,98837.84
2022-11-15T16:20:35.257Z,98825.59
2022-11-15T16:23:08.812Z,98830.06
2022-11-15T16:25:41.735Z,98823.19
2022-11-15T16:28:18.523Z,98825.88
2022-11-15T16:30:49.983Z,98827.28
2022-11-15T16:33:21.453Z,98826.59
2022-11-15T16:35:49.802Z,98826.53
2022-11-15T16:38:17.706Z,98809.50
2022-11-15T16:40:45.780Z,98812.34
2022-11-15T16:43:13.737Z,98808.78
2022-11-15T16:45:41.398Z,98799.88
2022-11-15T16:48:22.865Z,98798.19
2022-11-15T16:50:50.548Z,98794.00
2022-11-15T16:53:18.300Z,98782.72
2022-11-15T16:55:45.936Z,98784.97
2022-11-15T16:58:13.597Z,98780.31
2022-11-15T17:00:41.503Z,98774.91
2022-11-15T17:03:09.312Z,98776.63
2022-11-15T17:05:38.444Z,98772.25
2022-11-15T17:08:06.453Z,98759.97
2022-11-15T17:10:34.117Z,98766.97
2022-11-15T17:13:01.924Z,98763.50
2022-11-15T17:15:29.599Z,98761.63
2022-11-15T17:17:57.228Z,98755.31
2022-11-15T17:20:26.711Z,98745.56
2022-11-15T17:22:57.262Z,98759.25
2022-11-15T17:25:24.891Z,98764.94
2022-11-15T17:27:52.589Z,98756.41
2022-11-15T17:30:20.282Z,98752.16
2022-11-15T17:32:49.633Z,98756.31
2022-11-15T17:35:17.467Z,98755.59
2022-11-15T17:37:45.313Z,98720.38
2022-11-15T17:40:14.525Z,98747.41
2022-11-15T17:42:42.742Z,98751.03
2022-11-15T17:45:12.220Z,98745.34
2022-11-15T17:47:39.961Z,98710.75
2022-11-15T17:50:07.883Z,98751.66
2022-11-15T17:52:35.522Z,98747.78
2022-11-15T17:55:03.167Z,98737.22
2022-11-15T17:57:32.222Z,98736.88
2022-11-15T17:59:59.913Z,98743.63
2022-11-15T18:02:27.664Z,98749.22
2022-11-15T18:04:55.270Z,98736.34
2022-11-15T18:07:22.937Z,98738.22
2022-11-15T18:09:50.673Z,98735.22
2022-11-15T18:12:19.659Z,98726.06
2022-11-15T18:14:48.660Z,98716.03
2022-11-15T18:17:18.414Z,98723.97
2022-11-15T18:19:46.093Z,98727.16
2022-11-15T18:22:13.758Z,98715.78
2022-11-15T18:24:42.844Z,98726.75
2022-11-15T18:27:10.868Z,98715.06
2022-11-15T18:29:38.557Z,98715.88
2022-11-15T18:32:12.193Z,98720.09
2022-11-15T18:34:39.896Z,98711.28
2022-11-15T18:37:08.189Z,98711.53
2022-11-15T18:39:36.255Z,98710.44
2022-11-15T18:42:04.367Z,98712.75
2022-11-15T18:44:32.050Z,98708.44
2022-11-15T18:46:59.740Z,98701.34
2022-11-15T18:49:28.697Z,98695.81
2022-11-15T18:51:56.955Z,98693.31
2022-11-15T18:54:30.628Z,98702.13
2022-11-15T18:56:59.147Z,98696.94
2022-11-15T18:59:27.558Z,98691.06
2022-11-15T19:01:55.989Z,98695.81
2022-11-15T19:04:23.856Z,98694.53
2022-11-15T19:06:53.444Z,98696.59
2022-11-15T19:09:21.258Z,98694.59
2022-11-15T19:11:51.267Z,98599.75
2022-11-15T19:14:23.757Z,98690.88
2022-11-15T19:16:52.236Z,98681.38
2022-11-15T19:19:21.993Z,98687.25
2022-11-15T19:21:49.869Z,98656.25
2022-11-15T19:24:19.133Z,98677.22
2022-11-15T19:26:47.550Z,98675.69
2022-11-15T19:29:15.567Z,98677.66
2022-11-15T19:31:43.299Z,98679.56
2022-11-15T19:34:12.763Z,98654.97
2022-11-15T19:36:41.703Z,98670.25
2022-11-15T19:39:12.759Z,98663.50
2022-11-15T19:41:43.322Z,98684.41
2022-11-15T19:44:12.060Z,98675.16
2022-11-15T19:46:40.517Z,98684.66
2022-11-15T19:49:10.657Z,98670.06
2022-11-15T19:51:41.501Z,98673.84
2022-11-15T19:54:10.284Z,98668.75
2022-11-15T19:56:39.566Z,98661.50
2022-11-15T19:59:11.399Z,98657.88
2022-11-15T20:01:39.497Z,98655.72
2022-11-15T20:04:09.899Z,98651.06
2022-11-15T20:06:40.203Z,98654.00
2022-11-15T20:09:08.602Z,98658.56
2022-11-15T20:11:37.925Z,98642.34
2022-11-15T20:14:06.644Z,98647.19
2022-11-15T20:16:35.930Z,98653.22
2022-11-15T20:19:03.566Z,98660.31
2022-11-15T20:21:31.504Z,98655.19
2022-11-15T20:23:59.239Z,98648.91
2022-11-15T20:26:27.008Z,98657.88
2022-11-15T20:29:00.900Z,98653.31
2022-11-15T20:31:29.415Z,98633.00
2022-11-15T20:33:58.635Z,98651.75
2022-11-15T20:36:26.579Z,98646.69
2022-11-15T20:38:57.742Z,98643.13
2022-11-15T20:41:25.323Z,98641.31
2022-11-15T20:43:53.246Z,98630.78
2022-11-15T20:46:21.123Z,98629.97
2022-11-15T20:48:48.796Z,98623.59
2022-11-15T20:51:19.205Z,98612.09
2022-11-15T20:53:47.888Z,98605.22
2022-11-15T20:56:18.242Z,98595.19
2022-11-15T20:58:46.857Z,98588.78
2022-11-15T21:01:16.210Z,98582.63
2022-11-15T21:04:04.465Z,98591.66
2022-11-15T21:06:53.733Z,98600.31
2022-11-15T21:09:59.321Z,98591.66
2022-11-15T21:12:47.624Z,98581.97
2022-11-15T21:15:35.518Z,98586.19
2022-11-15T21:18:23.454Z,98580.16
2022-11-15T21:21:11.649Z,98577.50
2022-11-15T21:24:02.942Z,98578.09
2022-11-15T21:26:51.203Z,98583.44
2022-11-15T21:29:39.551Z,98582.41
2022-11-15T21:32:28.941Z,98575.50
2022-11-15T21:35:17.108Z,98589.22
2022-11-15T21:38:05.049Z,98582.59
2022-11-15T21:40:54.685Z,98581.78
2022-11-15T21:43:42.603Z,98576.38
2022-11-15T21:46:31.753Z,98577.06
2022-11-15T21:49:20.765Z,98575.06
2022-11-15T21:52:08.741Z,98572.75
2022-11-15T21:54:56.674Z,98578.78
2022-11-15T21:57:45.988Z,98569.78
2022-11-15T22:00:51.875Z,98562.66
2022-11-15T22:03:39.982Z,98568.34
2022-11-15T22:06:27.928Z,98551.91
2022-11-15T22:09:15.892Z,98560.94
2022-11-15T22:12:03.987Z,98559.19
2022-11-15T22:14:53.265Z,98555.22
2022-11-15T22:17:59.387Z,98553.22
2022-11-15T22:20:54.198Z,98554.03
2022-11-15T22:23:43.346Z,98554.56
2022-11-15T22:26:31.453Z,98558.56
2022-11-15T22:29:19.538Z,98560.97
2022-11-15T22:32:09.001Z,98564.31
2022-11-15T22:34:57.114Z,98566.94
2022-11-15T22:37:45.469Z,98560.25
2022-11-15T22:40:33.570Z,98558.31
2022-11-15T22:43:24.079Z,98552.03
2022-11-15T22:46:12.171Z,98461.84
2022-11-15T22:49:03.420Z,98544.88
2022-11-15T22:51:51.810Z,98538.59
2022-11-15T22:54:40.254Z,98536.38
2022-11-15T22:57:28.415Z,98530.28
2022-11-15T23:00:17.858Z,98519.34
2022-11-15T23:03:06.280Z,98518.66
2022-11-15T23:05:56.116Z,98517.22
2022-11-15T23:08:44.204Z,98510.50
2022-11-15T23:11:49.812Z,98515.25
2022-11-15T23:14:37.942Z,98516.53
2022-11-15T23:17:26.139Z,98513.31
2022-11-15T23:20:36.706Z,98514.91
2022-11-15T23:23:23.842Z,98509.03
2022-11-15T23:26:12.095Z,98507.75
2022-11-15T23:29:00.195Z,98506.56
2022-11-15T23:32:06.155Z,98519.84
2022-11-15T23:34:54.216Z,98517.94
2022-11-15T23:37:42.561Z,98521.84
2022-11-15T23:40:32.002Z,98523.03
2022-11-15T23:43:20.251Z,98519.19
2022-11-15T23:46:08.316Z,98526.88
2022-11-15T23:48:56.573Z,98520.16
2022-11-15T23:51:44.787Z,98519.31
2022-11-15T23:54:32.840Z,98516.03
2022-11-15T23:57:23.201Z,98512.78
